createdAt,value
2023-03-27T00:01:23.723Z,0.50
2023-03-27T00:04:28.102Z,0.90
2023-03-27T00:07:29.871Z,1.05
2023-03-27T00:10:32.759Z,0.85
2023-03-27T00:13:34.657Z,0.70
2023-03-27T00:16:36.523Z,0.70
2023-03-27T00:19:39.698Z,0.90
2023-03-27T00:22:41.773Z,0.63
2023-03-27T00:25:43.525Z,0.80
2023-03-27T00:28:45.596Z,0.82
2023-03-27T00:31:47.411Z,1.05
2023-03-27T00:34:50.596Z,0.90
2023-03-27T00:37:52.839Z,0.70
2023-03-27T00:40:55.021Z,1.00
2023-03-27T00:43:57.095Z,0.82
2023-03-27T00:46:59.065Z,1.13
2023-03-27T00:50:06.525Z,0.90
2023-03-27T00:53:13.593Z,0.98
2023-03-27T00:56:15.803Z,0.80
2023-03-27T00:59:22.798Z,0.88
2023-03-27T01:02:24.773Z,1.00
2023-03-27T01:05:28.181Z,1.23
2023-03-27T01:08:33.222Z,0.60
2023-03-27T01:11:46.591Z,1.00
2023-03-27T01:15:07.125Z,1.00
2023-03-27T01:18:27.842Z,0.80
2023-03-27T01:22:21.476Z,1.00
2023-03-27T01:25:56.573Z,1.45
2023-03-27T01:29:05.561Z,1.50
2023-03-27T01:32:58.556Z,1.20
2023-03-27T01:36:25.076Z,1.23
2023-03-27T01:39:39.150Z,1.00
2023-03-27T01:42:47.939Z,1.60
2023-03-27T01:45:55.601Z,1.40
2023-03-27T01:49:02.356Z,1.35
2023-03-27T01:52:08.016Z,1.25
2023-03-27T01:55:15.308Z,0.95
2023-03-27T01:58:21.473Z,1.00
2023-03-27T02:01:30.742Z,0.90
2023-03-27T02:04:40.518Z,1.15
2023-03-27T02:07:48.276Z,0.70
2023-03-27T02:10:56.003Z,0.60
2023-03-27T02:14:01.962Z,0.80
2023-03-27T02:17:08.493Z,0.50
2023-03-27T02:20:13.970Z,0.70
2023-03-27T02:23:15.766Z,0.50
2023-03-27T02:26:19.784Z,0.60
2023-03-27T02:29:38.703Z,0.60
2023-03-27T02:32:48.462Z,0.60
2023-03-27T02:36:00.058Z,0.63
2023-03-27T02:39:07.453Z,0.70
2023-03-27T02:42:18.544Z,0.70
2023-03-27T02:45:28.790Z,0.68
2023-03-27T02:48:34.531Z,0.70
2023-03-27T02:51:41.506Z,0.80
2023-03-27T02:54:50.758Z,0.68
2023-03-27T03:01:01.688Z,0.63
2023-03-27T03:04:10.044Z,0.90
2023-03-27T03:07:13.005Z,0.60
2023-03-27T03:10:16.075Z,0.68
2023-03-27T03:13:19.812Z,0.65
2023-03-27T03:16:21.777Z,0.70
2023-03-27T03:19:25.213Z,0.70
2023-03-27T03:22:27.483Z,0.60
2023-03-27T03:25:31.117Z,0.40
2023-03-27T03:28:34.308Z,0.63
2023-03-27T03:31:36.582Z,0.57
2023-03-27T03:34:38.472Z,0.50
2023-03-27T03:37:40.796Z,0.43
2023-03-27T03:40:42.738Z,0.57
2023-03-27T03:43:45.947Z,0.52
2023-03-27T03:46:47.755Z,0.70
2023-03-27T03:49:49.568Z,0.90
2023-03-27T03:52:51.750Z,0.65
2023-03-27T03:55:53.864Z,0.60
2023-03-27T03:58:57.496Z,0.77
2023-03-27T04:01:59.380Z,0.77
2023-03-27T04:05:09.125Z,1.27
2023-03-27T04:08:12.947Z,1.98
2023-03-27T04:11:15.231Z,1.70
2023-03-27T04:14:20.676Z,2.40
2023-03-27T04:17:23.280Z,2.85
2023-03-27T04:20:25.422Z,3.25
2023-03-27T04:23:28.041Z,2.63
2023-03-27T04:26:30.198Z,3.60
2023-03-27T04:29:33.651Z,3.40
2023-03-27T04:32:35.470Z,3.63
2023-03-27T04:35:38.500Z,3.45
2023-03-27T04:38:40.769Z,3.22
2023-03-27T04:41:42.640Z,3.72
2023-03-27T04:44:45.836Z,2.95
2023-03-27T04:47:48.115Z,3.30
2023-03-27T04:50:50.048Z,2.60
2023-03-27T04:53:52.409Z,3.30
2023-03-27T04:56:54.774Z,2.70
2023-03-27T04:59:58.420Z,2.60
2023-03-27T05:03:01.102Z,2.90
2023-03-27T05:06:03.498Z,2.90
2023-03-27T05:09:08.085Z,3.00
2023-03-27T05:12:09.974Z,2.90
2023-03-27T05:15:14.483Z,3.35
2023-03-27T05:18:16.388Z,3.55
2023-03-27T05:21:18.273Z,3.28
2023-03-27T05:24:20.470Z,3.10
2023-03-27T05:27:23.835Z,3.13
2023-03-27T05:30:28.805Z,3.90
2023-03-27T05:33:30.820Z,4.10
2023-03-27T05:36:33.637Z,3.70
2023-03-27T05:39:35.436Z,3.97
2023-03-27T05:42:42.889Z,4.00
2023-03-27T05:45:46.713Z,4.25
2023-03-27T05:48:48.830Z,4.43
2023-03-27T05:51:50.729Z,4.13
2023-03-27T05:54:52.667Z,4.10
2023-03-27T05:57:55.420Z,4.30
2023-03-27T06:00:59.146Z,4.72
2023-03-27T06:04:01.304Z,4.70
2023-03-27T06:07:03.361Z,4.60
2023-03-27T06:10:06.410Z,4.22
2023-03-27T06:13:15.738Z,4.00
2023-03-27T06:16:19.460Z,4.25
2023-03-27T06:19:22.683Z,4.07
2023-03-27T06:22:24.577Z,3.88
2023-03-27T06:25:32.274Z,2.95
2023-03-27T06:28:34.507Z,2.80
2023-03-27T06:31:38.365Z,3.03
2023-03-27T06:34:40.197Z,3.05
2023-03-27T06:37:42.543Z,2.30
2023-03-27T06:40:44.821Z,2.30
2023-03-27T06:43:46.726Z,2.40
2023-03-27T06:46:50.484Z,2.45
2023-03-27T06:49:52.748Z,2.35
2023-03-27T06:52:55.223Z,2.60
2023-03-27T06:55:58.050Z,2.70
2023-03-27T06:59:00.729Z,3.80
2023-03-27T07:02:04.274Z,1.77
2023-03-27T07:05:08.200Z,1.73
2023-03-27T07:08:22.495Z,1.83
2023-03-27T07:11:25.838Z,1.30
2023-03-27T07:14:29.229Z,1.00
2023-03-27T07:17:45.946Z,1.55
2023-03-27T07:20:50.874Z,1.08
2023-03-27T07:23:53.835Z,0.80
2023-03-27T07:26:55.665Z,0.90
2023-03-27T07:29:57.770Z,0.70
2023-03-27T07:33:01.504Z,1.10
2023-03-27T07:36:06.993Z,1.38
2023-03-27T07:39:08.971Z,0.60
2023-03-27T07:42:11.225Z,0.68
2023-03-27T07:45:15.154Z,0.60
2023-03-27T07:48:18.558Z,0.50
2023-03-27T07:51:20.420Z,1.02
2023-03-27T07:54:22.311Z,2.20
2023-03-27T07:57:24.669Z,0.73
2023-03-27T08:00:27.031Z,0.55
2023-03-27T08:03:31.374Z,0.70
2023-03-27T08:06:33.610Z,0.68
2023-03-27T08:09:35.926Z,0.80
2023-03-27T08:12:39.596Z,0.90
2023-03-27T08:15:41.442Z,0.77
2023-03-27T08:18:45.244Z,0.88
2023-03-27T08:21:47.105Z,0.63
2023-03-27T08:24:49.196Z,0.80
2023-03-27T08:27:51.357Z,0.50
2023-03-27T08:30:53.644Z,0.52
2023-03-27T08:34:06.332Z,0.65
2023-03-27T08:37:08.157Z,0.50
2023-03-27T08:40:19.290Z,0.70
2023-03-27T08:43:23.570Z,0.70
2023-03-27T08:46:28.247Z,0.60
2023-03-27T08:49:37.124Z,0.60
2023-03-27T08:52:41.079Z,0.70
2023-03-27T08:55:44.366Z,0.90
2023-03-27T08:58:48.757Z,1.13
2023-03-27T09:01:58.701Z,1.30
2023-03-27T09:05:09.193Z,1.10
2023-03-27T09:08:21.841Z,1.15
2023-03-27T09:11:37.396Z,1.15
2023-03-27T09:14:46.960Z,1.20
2023-03-27T09:17:51.877Z,1.50
2023-03-27T09:20:58.804Z,1.63
2023-03-27T09:24:06.061Z,1.48
2023-03-27T09:27:16.457Z,1.42
2023-03-27T09:30:24.672Z,1.75
2023-03-27T09:33:26.871Z,1.77
2023-03-27T09:36:31.275Z,2.20
2023-03-27T09:39:35.179Z,2.08
2023-03-27T09:42:41.215Z,1.77
2023-03-27T09:45:45.178Z,2.30
2023-03-27T09:48:54.519Z,2.22
2023-03-27T09:51:58.675Z,1.80
2023-03-27T09:55:03.387Z,2.33
2023-03-27T09:58:13.607Z,2.53
2023-03-27T10:01:17.205Z,2.10
2023-03-27T10:04:21.336Z,2.40
2023-03-27T10:07:25.763Z,1.88
2023-03-27T10:10:28.719Z,1.80
2023-03-27T10:13:31.261Z,2.03
2023-03-27T10:16:39.815Z,2.03
2023-03-27T10:19:42.335Z,2.00
2023-03-27T10:22:54.403Z,1.90
2023-03-27T10:26:00.301Z,2.10
2023-03-27T10:29:18.601Z,2.00
2023-03-27T10:32:43.734Z,1.95
2023-03-27T10:35:45.821Z,1.90
2023-03-27T10:38:55.125Z,2.35
2023-03-27T10:41:59.412Z,2.30
2023-03-27T10:45:01.602Z,2.35
2023-03-27T10:48:08.223Z,2.42
2023-03-27T10:51:33.168Z,2.58
2023-03-27T10:54:46.853Z,2.75
2023-03-27T10:57:52.874Z,2.80
2023-03-27T11:01:02.607Z,2.90
2023-03-27T11:04:14.858Z,2.90
2023-03-27T11:07:23.816Z,3.05
2023-03-27T11:10:34.782Z,2.90
2023-03-27T11:13:41.982Z,3.00
2023-03-27T11:16:49.874Z,3.20
2023-03-27T11:19:57.864Z,3.10
2023-03-27T11:23:04.473Z,3.50
2023-03-27T11:26:13.210Z,3.22
2023-03-27T11:29:21.418Z,3.47
2023-03-27T11:32:33.081Z,3.17
2023-03-27T11:35:38.405Z,3.58
2023-03-27T11:38:47.072Z,2.92
2023-03-27T11:41:56.270Z,3.92
2023-03-27T11:44:58.220Z,3.83
2023-03-27T11:48:19.861Z,3.42
2023-03-27T11:51:35.134Z,3.53
2023-03-27T11:54:56.265Z,4.05
2023-03-27T11:58:14.157Z,3.38
2023-03-27T12:01:23.747Z,3.60
2023-03-27T12:04:40.928Z,3.38
2023-03-27T12:07:56.692Z,3.03
2023-03-27T12:11:02.863Z,3.17
2023-03-27T12:14:44.689Z,2.92
2023-03-27T12:18:02.939Z,3.28
2023-03-27T12:21:16.957Z,2.88
2023-03-27T12:24:33.392Z,2.67
2023-03-27T12:27:53.661Z,2.75
2023-03-27T12:31:03.551Z,2.90
2023-03-27T12:34:12.176Z,3.20
2023-03-27T12:37:14.589Z,2.05
2023-03-27T12:40:28.850Z,2.85
2023-03-27T12:43:32.096Z,2.35
2023-03-27T12:46:37.804Z,2.88
2023-03-27T12:49:47.724Z,3.20
2023-03-27T12:52:51.987Z,3.50
2023-03-27T12:56:23.523Z,3.10
2023-03-27T12:59:28.574Z,3.58
2023-03-27T13:03:07.016Z,4.10
2023-03-27T13:06:38.056Z,3.35
2023-03-27T13:09:54.528Z,2.80
2023-03-27T13:13:14.037Z,3.22
2023-03-27T13:16:32.301Z,2.97
2023-03-27T13:19:45.825Z,3.63
2023-03-27T13:23:00.365Z,3.10
2023-03-27T13:26:19.463Z,3.13
2023-03-27T13:29:22.992Z,4.00
2023-03-27T13:32:36.890Z,2.95
2023-03-27T13:35:52.792Z,2.85
2023-03-27T13:39:19.098Z,2.65
2023-03-27T13:42:23.012Z,2.28
2023-03-27T13:45:31.846Z,2.50
2023-03-27T13:49:06.621Z,2.42
2023-03-27T13:52:46.913Z,2.40
2023-03-27T13:56:06.599Z,2.30
2023-03-27T14:02:55.093Z,2.65
2023-03-27T14:06:40.768Z,2.30
2023-03-27T14:09:55.584Z,2.00
2023-03-27T14:13:06.738Z,2.20
2023-03-27T14:16:38.319Z,2.30
2023-03-27T14:20:11.605Z,2.03
2023-03-27T14:23:18.043Z,2.00
2023-03-27T14:26:24.110Z,1.92
2023-03-27T14:29:26.459Z,2.40
2023-03-27T14:32:29.157Z,1.75
2023-03-27T14:35:35.587Z,1.50
2023-03-27T14:38:38.203Z,1.73
2023-03-27T14:41:48.513Z,1.30
2023-03-27T14:44:51.001Z,1.30
2023-03-27T14:47:56.717Z,1.20
2023-03-27T14:51:02.006Z,1.38
2023-03-27T14:54:07.253Z,1.33
2023-03-27T14:57:15.894Z,1.52
2023-03-27T15:00:21.822Z,1.60
2023-03-27T15:03:26.338Z,1.40
2023-03-27T15:06:29.690Z,4.45
2023-03-27T15:09:31.893Z,2.90
2023-03-27T15:12:37.277Z,2.00
2023-03-27T15:15:43.047Z,1.55
2023-03-27T15:18:54.490Z,1.35
2023-03-27T15:22:02.966Z,1.35
2023-03-27T15:25:09.475Z,13.23
2023-03-27T15:28:20.419Z,1.00
2023-03-27T15:31:22.660Z,1.30
2023-03-27T15:34:32.026Z,1.90
2023-03-27T15:37:35.479Z,1.60
2023-03-27T15:40:42.437Z,1.60
2023-03-27T15:43:46.487Z,1.52
2023-03-27T15:46:54.967Z,1.42
2023-03-27T15:50:19.600Z,1.60
2023-03-27T15:53:31.739Z,1.40
2023-03-27T15:56:40.098Z,1.88
2023-03-27T15:59:52.505Z,1.60
2023-03-27T16:02:55.974Z,1.30
2023-03-27T16:05:58.819Z,1.20
2023-03-27T16:09:01.998Z,1.10
2023-03-27T16:12:04.794Z,1.50
2023-03-27T16:15:28.351Z,1.25
2023-03-27T16:18:34.211Z,1.60
2023-03-27T16:21:36.573Z,1.27
2023-03-27T16:24:39.308Z,1.40
2023-03-27T16:27:46.889Z,1.00
2023-03-27T16:30:52.385Z,1.80
2023-03-27T16:33:54.276Z,1.30
2023-03-27T16:36:58.184Z,1.35
2023-03-27T16:40:00.219Z,1.75
2023-03-27T16:43:03.174Z,2.10
2023-03-27T16:46:16.190Z,1.25
2023-03-27T16:49:18.131Z,1.40
2023-03-27T16:52:22.050Z,1.15
2023-03-27T16:55:25.435Z,1.10
2023-03-27T16:58:27.929Z,1.40
2023-03-27T17:01:32.072Z,1.17
2023-03-27T17:04:34.894Z,1.30
2023-03-27T17:07:38.206Z,1.23
2023-03-27T17:10:41.322Z,1.23
2023-03-27T17:13:47.300Z,1.20
2023-03-27T17:16:51.058Z,1.90
2023-03-27T17:19:56.569Z,1.20
2023-03-27T17:22:59.324Z,0.88
2023-03-27T17:26:02.771Z,1.20
2023-03-27T17:29:06.845Z,1.15
2023-03-27T17:32:10.895Z,0.85
2023-03-27T17:35:13.623Z,1.15
2023-03-27T17:38:16.293Z,1.00
2023-03-27T17:41:23.026Z,0.80
2023-03-27T17:44:27.129Z,1.00
2023-03-27T17:47:31.269Z,2.30
2023-03-27T17:50:34.385Z,1.90
2023-03-27T17:53:37.571Z,1.02
2023-03-27T17:56:41.675Z,0.77
2023-03-27T17:59:43.871Z,1.20
2023-03-27T18:02:52.060Z,0.90
2023-03-27T18:05:55.792Z,1.00
2023-03-27T18:09:04.361Z,1.02
2023-03-27T18:12:07.178Z,1.10
2023-03-27T18:15:11.500Z,1.10
2023-03-27T18:18:16.969Z,1.20
2023-03-27T18:21:21.390Z,1.30
2023-03-27T18:24:25.250Z,1.13
2023-03-27T18:27:28.723Z,0.90
2023-03-27T18:30:32.378Z,1.17
2023-03-27T18:33:41.242Z,1.00
2023-03-27T18:36:45.390Z,1.27
2023-03-27T18:39:49.349Z,0.90
2023-03-27T18:42:53.759Z,1.00
2023-03-27T18:45:57.907Z,0.75
2023-03-27T18:49:13.615Z,1.25
2023-03-27T18:55:24.148Z,0.75
2023-03-27T18:58:28.757Z,1.05
2023-03-27T19:01:32.304Z,1.13
2023-03-27T19:04:38.298Z,1.52
2023-03-27T19:07:45.019Z,1.00
2023-03-27T19:10:49.415Z,1.00
2023-03-27T19:13:51.801Z,1.10
2023-03-27T19:16:55.474Z,1.50
2023-03-27T19:20:00.537Z,1.33
2023-03-27T19:23:04.086Z,1.48
2023-03-27T19:26:11.202Z,1.17
2023-03-27T19:29:15.489Z,1.00
2023-03-27T19:32:20.270Z,1.30
2023-03-27T19:35:30.688Z,1.50
2023-03-27T19:38:34.728Z,1.48
2023-03-27T19:41:37.615Z,1.15
2023-03-27T19:44:44.658Z,1.17
2023-03-27T19:47:47.343Z,1.45
2023-03-27T19:50:56.885Z,1.50
2023-03-27T19:54:00.629Z,1.30
2023-03-27T19:57:04.963Z,1.48
2023-03-27T20:00:09.916Z,1.10
2023-03-27T20:03:13.579Z,1.40
2023-03-27T20:06:21.662Z,1.30
2023-03-27T20:09:25.601Z,1.50
2023-03-27T20:12:29.083Z,1.50
2023-03-27T20:15:35.609Z,1.73
2023-03-27T20:18:39.434Z,1.50
2023-03-27T20:21:44.303Z,1.42
2023-03-27T20:24:47.937Z,1.50
2023-03-27T20:27:51.181Z,1.70
2023-03-27T20:30:53.849Z,1.80
2023-03-27T20:33:56.345Z,1.90
2023-03-27T20:37:00.092Z,1.85
2023-03-27T20:40:02.698Z,1.70
2023-03-27T20:43:06.804Z,2.13
2023-03-27T20:46:08.957Z,2.08
2023-03-27T20:49:12.139Z,1.80
2023-03-27T20:52:17.840Z,1.90
2023-03-27T20:55:32.415Z,1.92
2023-03-27T20:58:38.260Z,1.70
2023-03-27T21:01:40.618Z,1.90
2023-03-27T21:04:42.912Z,1.73
2023-03-27T21:07:46.346Z,1.75
2023-03-27T21:10:53.083Z,2.00
2023-03-27T21:13:55.360Z,1.63
2023-03-27T21:16:57.508Z,2.00
2023-03-27T21:19:59.854Z,2.08
2023-03-27T21:23:03.171Z,2.20
2023-03-27T21:26:05.535Z,2.00
2023-03-27T21:29:08.180Z,2.15
2023-03-27T21:32:12.213Z,2.33
2023-03-27T21:35:14.000Z,3.08
2023-03-27T21:38:17.942Z,2.75
2023-03-27T21:41:21.858Z,2.78
2023-03-27T21:44:24.117Z,2.85
2023-03-27T21:47:40.847Z,3.05
2023-03-27T21:50:49.447Z,3.20
2023-03-27T21:53:53.493Z,3.40
2023-03-27T21:56:56.924Z,3.20
2023-03-27T21:59:58.823Z,3.40
2023-03-27T22:03:00.874Z,3.50
2023-03-27T22:06:11.712Z,3.40
2023-03-27T22:09:16.528Z,4.10
2023-03-27T22:12:20.224Z,3.85
2023-03-27T22:15:22.686Z,3.92
2023-03-27T22:18:26.074Z,3.80
2023-03-27T22:21:30.483Z,4.10
2023-03-27T22:24:34.343Z,3.92
2023-03-27T22:27:36.114Z,4.35
2023-03-27T22:30:38.603Z,3.92
2023-03-27T22:33:42.222Z,3.50
2023-03-27T22:36:44.066Z,4.13
2023-03-27T22:39:47.843Z,3.92
2023-03-27T22:42:49.607Z,3.95
2023-03-27T22:45:51.863Z,3.78
2023-03-27T22:48:54.561Z,3.17
2023-03-27T22:51:56.384Z,3.42
2023-03-27T22:54:59.699Z,3.95
2023-03-27T22:58:01.731Z,3.92
2023-03-27T23:01:05.163Z,4.03
2023-03-27T23:04:07.480Z,3.35
2023-03-27T23:07:10.027Z,3.58
2023-03-27T23:10:13.182Z,3.15
2023-03-27T23:13:15.121Z,3.40
2023-03-27T23:16:16.993Z,3.78
2023-03-27T23:19:18.863Z,3.10
2023-03-27T23:22:20.694Z,3.33
2023-03-27T23:25:24.255Z,3.55
2023-03-27T23:28:29.257Z,3.33
2023-03-27T23:31:34.794Z,3.60
2023-03-27T23:34:36.989Z,3.67
2023-03-27T23:37:40.117Z,3.40
2023-03-27T23:40:43.781Z,3.45
2023-03-27T23:43:46.489Z,3.72
2023-03-27T23:46:49.639Z,2.90
2023-03-27T23:49:51.498Z,3.13
2023-03-27T23:52:53.569Z,3.55
2023-03-27T23:55:58.395Z,3.13
2023-03-27T23:59:00.504Z,3.20
